Time;durP1;ratioP1;P1;durP2;ratioP2;P2;SDS_P1;SDS_P2;PMS_P1;PMS_P2;Temp;Humidity;BMP_temperature;BMP_pressure;BME280_temperature;BME280_humidity;BME280_pressure;Samples;Min_cycle;Max_cycle;Signal;HPM_P1;HPM_P2
2021/01/29 00:02:14;;;;;;;56.45;27.68;;;5.40;99.90;;;7.12;100.00;99936.69;1701530;74;24473;-77
2021/01/29 00:04:31;;;;;;;60.37;27.96;;;5.40;99.90;;;7.06;100.00;99936.22;1698529;74;24465;-78
2021/01/29 00:06:48;;;;;;;57.49;27.65;;;5.40;99.90;;;7.12;100.00;99933.69;1704512;74;24509;-77
2021/01/29 00:09:10;;;;;;;64.22;29.45;;;5.40;99.90;;;7.08;100.00;99928.02;1701280;74;24948;-77
2021/01/29 00:11:26;;;;;;;56.62;26.55;;;5.40;99.90;;;7.19;100.00;99916.50;1701779;74;24456;-77
2021/01/29 00:13:42;;;;;;;69.56;29.77;;;5.40;99.90;;;7.06;100.00;99909.05;1710300;74;24423;-76
2021/01/29 00:16:01;;;;;;;64.50;28.81;;;5.40;99.90;;;7.15;100.00;99901.77;1700238;74;24453;-77
2021/01/29 00:18:19;;;;;;;59.39;29.11;;;5.40;99.90;;;7.06;100.00;99898.70;1700420;73;24449;-77
2021/01/29 00:20:35;;;;;;;62.34;28.88;;;5.40;99.90;;;7.11;100.00;99895.69;1701383;74;24833;-76
2021/01/29 00:22:56;;;;;;;63.04;27.89;;;5.40;99.90;;;7.01;100.00;99893.02;1704862;74;24458;-77
2021/01/29 00:25:19;;;;;;;54.89;26.37;;;5.40;99.90;;;7.01;100.00;99886.13;1697161;74;24506;-76
2021/01/29 00:27:44;;;;;;;57.32;27.24;;;5.40;99.90;;;7.00;100.00;99877.06;1704078;74;24931;-77
2021/01/29 00:30:01;;;;;;;64.00;27.46;;;5.40;99.90;;;7.04;100.00;99859.39;1699944;73;24424;-78
2021/01/29 00:32:17;;;;;;;70.94;30.06;;;5.30;99.90;;;7.08;100.00;99849.08;1702278;74;24453;-76
2021/01/29 00:34:34;;;;;;;65.60;28.38;;;5.40;99.90;;;7.26;100.00;99841.47;1704365;74;24443;-76
2021/01/29 00:36:50;;;;;;;69.62;30.50;;;5.40;99.90;;;7.14;100.00;99840.52;1698661;74;24420;-78
2021/01/29 00:39:07;;;;;;;76.66;30.21;;;5.40;99.90;;;7.11;100.00;99834.86;1697085;74;24499;-77
2021/01/29 00:41:24;;;;;;;71.38;30.84;;;5.40;99.90;;;7.17;100.00;99815.94;1700807;74;24516;-78
2021/01/29 00:43:42;;;;;;;66.75;27.26;;;5.40;99.90;;;7.27;100.00;99806.10;1702937;74;24435;-76
2021/01/29 00:45:58;;;;;;;73.95;29.40;;;5.40;99.90;;;7.14;100.00;99797.39;1695723;74;24564;-77
2021/01/29 00:48:18;;;;;;;77.20;29.78;;;5.40;99.90;;;7.11;100.00;99795.19;1700483;74;24426;-76
2021/01/29 00:50:35;;;;;;;63.13;27.67;;;5.30;99.90;;;7.23;100.00;99793.97;1699135;74;24429;-77
2021/01/29 00:52:52;;;;;;;69.91;28.36;;;5.40;99.90;;;7.20;100.00;99784.89;1704447;74;24956;-77
2021/01/29 00:55:12;;;;;;;86.50;30.84;;;5.40;99.90;;;7.25;100.00;99781.50;1700387;74;24441;-77
2021/01/29 00:57:31;;;;;;;98.69;33.17;;;5.40;99.90;;;7.33;100.00;99766.00;1705645;74;24433;-79
2021/01/29 01:00:12;;;;;;;81.15;31.49;;;5.40;99.90;;;7.29;100.00;99762.52;1703386;74;24503;-78
2021/01/29 01:02:34;;;;;;;94.12;32.66;;;5.40;99.90;;;7.28;100.00;99763.39;1709654;74;24863;-78
2021/01/29 01:04:51;;;;;;;99.51;32.37;;;5.40;99.90;;;7.34;100.00;99757.36;1720283;73;24484;-76
2021/01/29 01:07:13;;;;;;;98.35;33.14;;;5.40;99.90;;;7.33;100.00;99755.20;1706922;74;24457;-78
2021/01/29 01:09:36;;;;;;;94.91;32.19;;;5.40;99.90;;;7.41;100.00;99758.70;1713498;73;24423;-77
2021/01/29 01:11:56;;;;;;;88.10;31.06;;;5.50;99.90;;;7.36;100.00;99754.36;1709818;74;24385;-76
2021/01/29 01:14:18;;;;;;;99.79;33.82;;;5.50;99.90;;;7.36;100.00;99749.19;1701228;73;24825;-76
2021/01/29 01:16:35;;;;;;;111.67;34.71;;;5.50;99.90;;;7.44;100.00;99748.80;1717486;74;24410;-76
2021/01/29 01:18:58;;;;;;;109.40;35.33;;;5.50;99.90;;;7.48;100.00;99739.76;1714559;73;24449;-78
2021/01/29 01:21:20;;;;;;;105.02;34.73;;;5.50;99.90;;;7.54;100.00;99738.48;1705633;74;24381;-78
2021/01/29 01:23:39;;;;;;;127.74;36.21;;;5.50;99.90;;;7.57;100.00;99732.02;1688120;74;24521;-77
2021/01/29 01:25:55;;;;;;;116.40;36.83;;;5.60;99.90;;;7.63;100.00;99726.86;1710688;74;24507;-76
2021/01/29 01:28:14;;;;;;;127.33;36.19;;;5.60;99.90;;;7.70;100.00;99715.67;1699924;74;24478;-77
2021/01/29 01:30:37;;;;;;;129.55;38.25;;;5.60;99.90;;;7.66;100.00;99713.95;1711440;74;24397;-77
2021/01/29 01:32:56;;;;;;;136.62;36.44;;;5.70;99.90;;;7.73;100.00;99705.74;1706986;74;24362;-78
2021/01/29 01:35:33;;;;;;;169.17;41.25;;;5.70;99.90;;;7.72;100.00;99705.32;1711825;74;24963;-76
2021/01/29 01:37:51;;;;;;;151.70;39.64;;;5.70;99.90;;;7.84;100.00;99693.69;1717290;74;24590;-76
2021/01/29 01:40:17;;;;;;;142.63;38.24;;;5.70;99.90;;;7.86;100.00;99685.91;1703196;74;24552;-78
2021/01/29 01:42:37;;;;;;;132.02;38.13;;;5.70;99.90;;;7.86;100.00;99680.31;1705493;74;24433;-77
2021/01/29 01:44:55;;;;;;;157.27;40.81;;;5.80;99.90;;;7.85;100.00;99677.72;1677346;75;24449;-76
2021/01/29 01:47:21;;;;;;;161.58;39.67;;;5.80;99.90;;;7.97;100.00;99663.48;1712573;74;25073;-76
2021/01/29 01:49:45;;;;;;;143.60;38.55;;;5.80;99.90;;;8.00;100.00;99657.03;1663782;74;24508;-77
2021/01/29 01:52:10;;;;;;;129.02;39.22;;;5.80;99.90;;;7.97;100.00;99651.39;1711591;74;24465;-78
2021/01/29 01:54:49;;;;;;;140.54;38.06;;;5.90;99.90;;;7.98;100.00;99643.20;1677741;74;24929;-78
2021/01/29 01:57:15;;;;;;;117.69;37.16;;;5.90;99.90;;;8.12;100.00;99637.59;1707676;74;25909;-78
2021/01/29 01:59:54;;;;;;;106.75;34.82;;;5.90;99.90;;;8.17;100.00;99628.94;1707444;74;24427;-78
2021/01/29 02:02:20;;;;;;;106.54;33.05;;;5.90;99.90;;;8.16;100.00;99618.14;1704409;73;24587;-76
2021/01/29 02:04:57;;;;;;;116.04;36.86;;;5.90;99.90;;;8.19;100.00;99615.55;1690626;74;24445;-78
2021/01/29 02:07:33;;;;;;;114.28;36.65;;;6.00;99.90;;;8.24;100.00;99611.27;1632624;74;24463;-78
2021/01/29 02:09:58;;;;;;;118.59;35.10;;;6.00;99.90;;;8.33;100.00;99603.48;1667064;74;24467;-77
2021/01/29 02:12:15;;;;;;;112.04;36.45;;;6.00;99.90;;;8.33;100.00;99598.30;1699145;74;24473;-79
2021/01/29 02:14:50;;;;;;;133.11;38.00;;;6.10;99.90;;;8.27;100.00;99592.23;1702206;74;24929;-77
2021/01/29 02:17:45;;;;;;;110.07;36.21;;;6.10;99.90;;;8.36;100.00;99578.00;1705371;74;26043;-78
2021/01/29 02:21:02;;;;;;;99.36;34.83;;;6.10;99.90;;;8.35;100.00;99568.05;1686649;74;24365;-77
2021/01/29 02:24:24;;;;;;;92.26;33.04;;;6.10;99.90;;;8.41;100.00;99559.41;1698213;74;24394;-78
2021/01/29 02:30:52;;;;;;;78.86;30.97;;;6.20;99.90;;;8.80;100.00;99533.36;1733342;72;25322;-77
2021/01/29 02:34:03;;;;;;;76.07;30.49;;;6.20;99.90;;;8.57;100.00;99520.86;1690871;75;24502;-77
2021/01/29 02:37:38;;;;;;;67.85;29.39;;;6.20;99.90;;;8.61;100.00;99509.62;1689156;75;24381;-77
2021/01/29 02:40:13;;;;;;;61.93;28.10;;;6.30;99.90;;;8.64;100.00;99500.53;1694172;74;24429;-77
2021/01/29 02:42:48;;;;;;;65.87;28.34;;;6.30;99.90;;;8.61;100.00;99493.64;1693180;75;24500;-78
2021/01/29 02:45:32;;;;;;;63.38;29.44;;;6.40;99.90;;;8.76;100.00;99490.09;1684936;75;24371;-78
2021/01/29 02:48:17;;;;;;;66.78;27.58;;;6.40;99.90;;;8.82;100.00;99475.83;1688063;75;24480;-78
2021/01/29 02:53:32;;;;;;;63.63;27.52;;;6.50;99.90;;;9.07;100.00;99454.06;1745879;72;25769;-79
2021/01/29 02:56:19;;;;;;;54.20;25.28;;;6.50;99.90;;;8.92;100.00;99452.83;1711619;74;24454;-77
2021/01/29 02:58:59;;;;;;;63.04;27.92;;;6.60;99.90;;;8.88;100.00;99445.94;1710606;74;24937;-76
2021/01/29 03:01:28;;;;;;;63.46;26.42;;;6.60;99.90;;;9.05;100.00;99433.30;1702438;74;24434;-78
2021/01/29 03:03:50;;;;;;;63.14;27.12;;;6.60;99.90;;;9.02;100.00;99419.04;1710484;74;24568;-78
2021/01/29 03:06:17;;;;;;;64.72;27.21;;;6.60;99.90;;;9.05;100.00;99418.14;1707643;74;24556;-78
2021/01/29 03:08:39;;;;;;;54.27;25.47;;;6.70;99.90;;;9.23;100.00;99407.65;1706665;74;24420;-77
2021/01/29 03:11:20;;;;;;;55.80;25.35;;;6.70;99.90;;;9.23;100.00;99400.28;1714122;74;24968;-79
2021/01/29 03:14:01;;;;;;;60.63;25.18;;;6.80;99.90;;;9.10;100.00;99392.56;1707834;74;24806;-76
2021/01/29 03:16:42;;;;;;;59.15;25.42;;;6.80;99.90;;;9.12;100.00;99386.05;1706888;74;24395;-78
2021/01/29 03:19:27;;;;;;;62.34;26.67;;;6.80;99.90;;;9.26;100.00;99385.97;1706515;74;24498;-79
2021/01/29 03:22:07;;;;;;;64.85;26.38;;;6.80;99.90;;;9.30;100.00;99374.67;1708021;74;24431;-79
2021/01/29 03:24:49;;;;;;;58.82;25.51;;;6.80;99.90;;;9.25;100.00;99367.38;1711214;74;24895;-78
2021/01/29 03:27:30;;;;;;;57.59;25.50;;;6.90;99.90;;;9.20;100.00;99359.17;1706253;75;24362;-78
2021/01/29 03:30:04;;;;;;;54.86;25.89;;;6.90;99.90;;;9.28;100.00;99348.71;1657947;74;24457;-78
2021/01/29 03:32:44;;;;;;;57.19;24.51;;;6.90;99.90;;;9.40;100.00;99349.92;1706573;74;24391;-79
2021/01/29 03:35:26;;;;;;;51.08;24.11;;;6.90;99.90;;;9.47;100.00;99342.48;1708142;74;24466;-79
2021/01/29 03:38:09;;;;;;;57.72;23.60;;;7.00;99.90;;;9.52;100.00;99338.11;1705492;74;24451;-78
2021/01/29 03:40:47;;;;;;;49.36;22.03;;;7.00;99.90;;;9.46;100.00;99326.48;1713682;74;24422;-78
2021/01/29 03:43:25;;;;;;;44.29;21.50;;;7.00;99.90;;;9.49;100.00;99324.28;1708844;74;24913;-78
2021/01/29 03:46:11;;;;;;;44.48;21.47;;;7.00;99.90;;;9.41;100.00;99324.78;1709570;74;24950;-79
2021/01/29 03:48:54;;;;;;;44.27;21.22;;;7.00;99.90;;;9.45;100.00;99310.48;1708895;74;24407;-79
2021/01/29 03:51:38;;;;;;;38.11;19.77;;;7.10;99.90;;;9.50;100.00;99311.73;1707949;74;24390;-78
2021/01/29 03:54:19;;;;;;;35.02;19.49;;;7.10;99.90;;;9.49;100.00;99304.80;1684049;75;24848;-77
2021/01/29 03:57:11;;;;;;;37.40;19.25;;;7.10;99.90;;;9.62;100.00;99292.11;1681235;75;24459;-78
2021/01/29 03:59:53;;;;;;;32.74;17.62;;;7.20;99.90;;;9.59;100.00;99278.72;1680591;75;24408;-77
2021/01/29 04:02:32;;;;;;;29.43;17.67;;;7.20;99.90;;;9.56;100.00;99270.97;1677702;75;24502;-78
2021/01/29 04:05:12;;;;;;;31.96;17.12;;;7.30;99.90;;;9.68;100.00;99263.45;1680773;75;24542;-78
2021/01/29 04:07:54;;;;;;;29.95;16.34;;;7.30;99.90;;;9.89;100.00;99253.69;1687457;75;24452;-79
2021/01/29 04:10:35;;;;;;;25.96;15.50;;;7.30;99.90;;;9.95;100.00;99246.23;1682094;75;24946;-79
2021/01/29 04:13:16;;;;;;;25.00;13.91;;;7.40;99.90;;;10.06;100.00;99245.66;1682366;75;24451;-79
2021/01/29 04:15:38;;;;;;;17.91;11.72;;;7.50;99.90;;;10.26;100.00;99234.13;1689197;75;24962;-77
2021/01/29 04:18:00;;;;;;;18.62;12.20;;;7.60;99.90;;;10.43;100.00;99223.50;1680856;75;24445;-78
2021/01/29 04:20:23;;;;;;;20.37;13.10;;;7.70;99.90;;;10.78;100.00;99213.37;1676023;75;24536;-76
2021/01/29 04:22:45;;;;;;;16.63;11.23;;;7.90;99.90;;;10.88;100.00;99215.37;1681047;75;24986;-78
2021/01/29 04:25:11;;;;;;;17.68;11.97;;;8.00;99.90;;;10.88;100.00;99207.56;1687233;75;24898;-79
2021/01/29 04:27:34;;;;;;;17.29;12.38;;;8.20;99.90;;;10.99;100.00;99201.30;1677267;75;24605;-78
2021/01/29 04:29:55;;;;;;;18.59;12.45;;;8.30;99.90;;;11.05;100.00;99206.39;1679387;75;24459;-78
2021/01/29 04:32:17;;;;;;;20.15;13.11;;;8.40;99.90;;;11.05;100.00;99203.79;1687636;75;24499;-78
2021/01/29 04:34:38;;;;;;;18.40;12.92;;;8.40;99.90;;;11.10;100.00;99198.50;1677284;75;24515;-77
2021/01/29 04:37:02;;;;;;;20.57;13.94;;;8.50;99.90;;;11.08;100.00;99195.08;1677283;75;24545;-79
2021/01/29 04:39:23;;;;;;;21.36;14.63;;;8.60;99.90;;;11.15;100.00;99190.16;1680937;75;25038;-78
2021/01/29 04:41:56;;;;;;;20.94;13.94;;;8.60;99.90;;;11.13;100.00;99186.75;1681364;75;24902;-78
2021/01/29 04:44:33;;;;;;;22.57;15.35;;;8.60;99.90;;;11.19;100.00;99186.63;1674182;75;24442;-79
2021/01/29 04:47:09;;;;;;;22.46;14.24;;;8.70;99.90;;;11.14;100.00;99183.24;1680936;75;24895;-80
2021/01/29 04:49:37;;;;;;;22.01;14.91;;;8.70;99.90;;;11.18;100.00;99180.55;1677485;75;24887;-77
2021/01/29 04:52:43;;;;;;;22.27;15.06;;;8.70;99.90;;;11.20;100.00;99172.27;1675826;75;24442;-78
2021/01/29 04:55:53;;;;;;;23.53;15.05;;;8.70;99.90;;;11.24;100.00;99170.47;1645379;76;24386;-78
2021/01/29 04:58:20;;;;;;;20.80;13.72;;;8.70;99.90;;;11.24;100.00;99160.05;1667005;76;24469;-77
2021/01/29 05:01:37;;;;;;;24.06;14.05;;;8.70;99.90;;;11.12;100.00;99154.63;1666624;76;24374;-77
2021/01/29 05:04:54;;;;;;;21.65;13.26;;;8.70;99.90;;;11.10;100.00;99147.27;1634720;76;24423;-78
2021/01/29 05:08:06;;;;;;;17.74;13.46;;;8.70;99.90;;;11.05;100.00;99150.86;1667680;76;24403;-78
2021/01/29 05:11:17;;;;;;;17.51;13.23;;;8.60;99.90;;;11.15;100.00;99147.17;1645153;76;24461;-79
2021/01/29 05:14:20;;;;;;;19.46;13.33;;;8.60;99.90;;;11.06;100.00;99141.72;1670595;76;24925;-78
2021/01/29 05:17:13;;;;;;;20.20;13.50;;;8.60;99.90;;;11.09;100.00;99133.84;1666908;76;24502;-78
2021/01/29 05:23:02;;;;;;;19.54;13.26;;;8.70;99.90;;;11.44;100.00;99139.66;1739423;72;25286;-79
2021/01/29 05:26:13;;;;;;;19.74;13.27;;;8.70;99.90;;;11.27;100.00;99137.84;1713320;74;24515;-78
2021/01/29 05:29:24;;;;;;;19.08;12.79;;;8.80;99.90;;;11.20;100.00;99131.89;1674353;76;24908;-79
2021/01/29 05:32:25;;;;;;;17.44;12.25;;;8.80;99.90;;;11.19;100.00;99131.92;1712433;74;24442;-78
2021/01/29 05:34:48;;;;;;;22.09;13.42;;;8.80;99.90;;;11.15;100.00;99128.51;1712548;74;25014;-78
2021/01/29 05:41:32;;;;;;;13.31;9.76;;;8.80;99.90;;;11.41;100.00;99117.11;1812814;69;25241;-78
2021/01/29 05:44:29;;;;;;;12.92;8.35;;;8.80;99.90;;;11.15;100.00;99120.70;1774851;71;24461;-77
2021/01/29 05:47:00;;;;;;;12.29;9.20;;;8.80;99.90;;;11.20;100.00;99120.59;1771575;71;24438;-77
2021/01/29 05:49:39;;;;;;;17.45;10.11;;;8.90;99.90;;;11.33;100.00;99128.59;1774785;71;24404;-78
2021/01/29 05:55:35;;;;;;;9.81;7.64;;;9.00;99.90;;;11.51;100.00;99128.20;1743544;72;25186;-77
2021/01/29 05:58:21;;;;;;;10.94;8.05;;;9.00;99.90;;;11.39;100.00;99132.37;1721391;73;24485;-76
2021/01/29 06:04:54;;;;;;;10.00;8.15;;;9.10;99.90;;;11.60;100.00;99148.89;1739588;72;25370;-77
2021/01/29 06:07:47;;;;;;;9.37;7.52;;;9.20;99.90;;;11.49;100.00;99136.52;1722451;73;24937;-77
2021/01/29 06:10:46;;;;;;;9.06;7.26;;;9.20;99.90;;;11.46;100.00;99150.92;1712299;73;24708;-77
2021/01/29 06:13:44;;;;;;;10.88;7.78;;;9.30;99.90;;;11.49;100.00;99146.95;1711454;73;24499;-77
2021/01/29 06:16:53;;;;;;;8.71;7.34;;;9.20;99.90;;;11.45;100.00;99136.16;1709357;73;24933;-76
2021/01/29 06:20:22;;;;;;;9.23;7.45;;;9.30;99.90;;;11.48;100.00;99142.17;1710937;73;24447;-77
2021/01/29 06:23:22;;;;;;;8.00;6.44;;;9.20;99.90;;;11.53;100.00;99142.08;1725070;73;24677;-76
2021/01/29 06:26:25;;;;;;;9.23;6.98;;;9.20;99.90;;;11.41;100.00;99131.44;1708053;73;24544;-77
2021/01/29 06:33:03;;;;;;;9.56;7.46;;;9.20;99.90;;;11.49;100.00;99128.23;1733162;72;25186;-76
2021/01/29 06:35:45;;;;;;;10.27;7.04;;;9.20;99.90;;;11.25;100.00;99130.06;1694989;75;24532;-77
2021/01/29 06:38:40;;;;;;;8.36;6.92;;;9.20;99.90;;;11.31;100.00;99134.27;1703061;75;24870;-76
2021/01/29 06:41:42;;;;;;;8.11;6.03;;;9.10;99.90;;;11.21;100.00;99133.59;1701031;75;25015;-76
2021/01/29 06:44:13;;;;;;;7.83;5.44;;;9.10;99.90;;;11.15;100.00;99135.45;1680170;75;25040;-76
2021/01/29 06:47:08;;;;;;;7.79;5.60;;;9.10;99.90;;;11.12;100.00;99135.08;1699054;75;24437;-77
2021/01/29 06:53:18;;;;;;;6.59;5.32;;;9.10;99.90;;;11.40;100.00;99134.95;1741068;72;25723;-76
2021/01/29 06:56:20;;;;;;;6.72;5.18;;;9.10;99.90;;;11.18;100.00;99144.08;1716916;73;24483;-75
2021/01/29 06:59:30;;;;;;;6.57;4.21;;;9.00;99.90;;;11.15;100.00;99141.97;1718344;73;24849;-75
2021/01/29 07:05:38;;;;;;;6.50;4.92;;;9.00;99.90;;;11.38;100.00;99151.52;1812239;69;25261;-76
2021/01/29 07:08:24;;;;;;;9.37;6.39;;;9.00;99.90;;;11.14;100.00;99150.68;1786126;71;24451;-77
2021/01/29 07:10:57;;;;;;;10.59;7.46;;;8.90;99.90;;;11.20;100.00;99142.31;1782371;70;24465;-77
2021/01/29 07:13:21;;;;;;;10.49;7.30;;;9.00;99.90;;;11.20;100.00;99150.56;1770508;71;24500;-76
2021/01/29 07:16:00;;;;;;;12.03;7.12;;;9.00;99.90;;;11.23;100.00;99155.70;1774764;70;24962;-76
2021/01/29 07:18:39;;;;;;;11.03;7.19;;;9.00;99.90;;;11.18;100.00;99158.41;1775046;71;24487;-80
2021/01/29 07:21:13;;;;;;;11.32;6.86;;;9.00;99.90;;;11.15;100.00;99155.86;1775021;70;24497;-79
2021/01/29 07:23:51;;;;;;;11.45;7.50;;;9.00;99.90;;;11.24;100.00;99152.23;1736862;72;24663;-78
2021/01/29 07:26:29;;;;;;;13.98;7.21;;;9.00;99.90;;;11.20;100.00;99161.84;1776725;71;24500;-79
2021/01/29 07:29:23;;;;;;;12.05;6.91;;;9.00;99.90;;;11.10;100.00;99151.17;1776089;71;24459;-77
2021/01/29 07:31:49;;;;;;;9.29;6.37;;;9.00;99.90;;;11.22;100.00;99163.13;1771724;70;24523;-78
2021/01/29 07:34:12;;;;;;;9.97;6.41;;;9.00;99.90;;;11.19;100.00;99152.77;1769794;70;24477;-77
2021/01/29 07:37:17;;;;;;;11.69;5.68;;;9.00;99.90;;;11.17;100.00;99198.81;1769520;71;24994;-82
2021/01/29 07:43:21;;;;;;;9.20;4.50;;;9.00;99.90;;;11.26;100.00;99155.21;1733632;72;25728;-80
2021/01/29 07:45:49;;;;;;;8.30;4.69;;;9.00;99.90;;;11.19;100.00;99173.61;1697877;75;24929;-82
2021/01/29 07:51:25;;;;;;;9.74;4.84;;;9.00;99.90;;;11.31;100.00;99175.97;1738952;72;25206;-80
2021/01/29 07:56:46;;;;;;;9.08;5.19;;;9.00;99.90;;;11.27;100.00;99187.34;1752350;72;25311;-80
2021/01/29 07:59:11;;;;;;;10.52;6.68;;;9.00;99.90;;;11.12;100.00;99191.52;1718530;73;25001;-80
2021/01/29 08:01:56;;;;;;;12.21;6.30;;;9.00;99.90;;;11.21;100.00;99184.40;1716702;73;24441;-78
2021/01/29 08:07:46;;;;;;;13.60;5.10;;;9.20;99.90;;;11.30;100.00;99188.13;1821735;68;30509;-79
2021/01/29 08:10:14;;;;;;;18.99;6.03;;;9.20;99.90;;;11.21;100.00;99206.97;1803904;70;25166;-81
2021/01/29 08:12:45;;;;;;;15.73;5.20;;;9.20;99.90;;;11.20;100.00;99207.44;1797494;70;24874;-79
2021/01/29 08:15:38;;;;;;;15.85;5.35;;;9.20;99.90;;;11.20;100.00;99211.78;1803435;70;24459;-79
2021/01/29 08:21:55;;;;;;;12.80;3.86;;;9.30;99.90;;;11.28;100.00;99211.20;1743261;72;25532;-78
2021/01/29 08:24:38;;;;;;;17.43;5.30;;;9.20;99.90;;;11.08;100.00;99215.92;1707840;73;25051;-77
2021/01/29 08:27:47;;;;;;;16.36;5.12;;;9.20;99.90;;;11.01;100.00;99231.22;1708124;74;24476;-79
2021/01/29 08:31:04;;;;;;;16.72;4.73;;;9.20;99.90;;;10.97;100.00;99266.03;1711981;74;24502;-77
2021/01/29 08:34:26;;;;;;;13.53;4.34;;;9.20;99.90;;;10.98;100.00;99232.15;1635574;74;24406;-77
2021/01/29 08:39:35;;;;;;;26.89;6.27;;;9.10;99.90;;;10.96;100.00;99253.44;1726369;72;25279;-75
2021/01/29 08:42:01;;;;;;;25.18;6.50;;;9.10;99.90;;;10.85;100.00;99254.48;1681551;75;24529;-79
2021/01/29 08:44:44;;;;;;;22.87;6.51;;;9.10;99.90;;;10.77;100.00;99268.94;1677905;75;24930;-78
2021/01/29 08:47:35;;;;;;;23.95;6.11;;;9.10;99.90;;;10.98;100.00;99267.30;1689025;75;24611;-77
2021/01/29 08:53:58;;;;;;;24.75;7.21;;;9.00;99.90;;;11.04;100.00;99284.56;1733492;72;25294;-78
2021/01/29 08:56:44;;;;;;;33.96;7.63;;;9.00;99.90;;;10.83;100.00;99276.65;1706545;74;24941;-79
2021/01/29 09:02:12;;;;;;;23.98;7.13;;;9.00;99.90;;;10.50;100.00;99298.84;1719048;73;24492;-78
2021/01/29 09:04:35;;;;;;;30.22;8.08;;;8.90;99.90;;;10.49;100.00;99281.95;1706273;73;24506;-78
2021/01/29 09:07:01;;;;;;;34.08;7.48;;;8.90;99.90;;;10.45;100.00;99294.14;1712310;74;24502;-78
2021/01/29 09:09:25;;;;;;;26.63;6.72;;;8.90;99.90;;;10.49;100.00;99284.55;1704641;74;24894;-79
2021/01/29 09:11:48;;;;;;;33.48;7.89;;;8.90;99.90;;;10.41;100.00;99300.71;1715750;73;24566;-77
2021/01/29 09:14:15;;;;;;;34.54;7.69;;;8.90;99.90;;;10.44;100.00;99300.23;1709580;73;24571;-76
2021/01/29 09:16:40;;;;;;;34.33;8.08;;;8.90;99.90;;;10.41;100.00;99312.42;1711875;73;24484;-79
2021/01/29 09:19:03;;;;;;;33.09;6.80;;;8.90;99.90;;;10.43;100.00;99306.30;1710951;74;24523;-78
2021/01/29 09:21:31;;;;;;;21.49;6.00;;;8.90;99.90;;;10.35;100.00;99313.34;1706204;74;24469;-80
2021/01/29 09:24:05;;;;;;;34.61;7.74;;;8.80;99.90;;;10.29;100.00;99299.13;1710793;74;24588;-77
2021/01/29 09:26:29;;;;;;;35.87;7.81;;;8.80;99.90;;;10.26;100.00;99363.33;1709194;74;24887;-79
2021/01/29 09:28:51;;;;;;;29.88;7.83;;;8.80;99.90;;;10.19;100.00;99314.45;1711531;73;24465;-78
2021/01/29 09:31:24;;;;;;;37.20;7.87;;;8.80;99.90;;;10.28;100.00;99326.03;1720565;74;24505;-78
2021/01/29 09:33:46;;;;;;;26.88;7.05;;;8.80;99.90;;;10.47;100.00;99332.72;1707299;74;24938;-83
2021/01/29 09:36:08;;;;;;;23.62;5.51;;;8.80;99.90;;;10.59;100.00;99340.81;1705953;73;24448;-80
2021/01/29 09:38:31;;;;;;;25.41;5.72;;;8.70;99.90;;;10.63;100.00;99327.73;1708434;74;24468;-77
2021/01/29 09:41:08;;;;;;;25.56;5.65;;;8.80;99.90;;;10.68;100.00;99332.87;1685422;75;24532;-80
2021/01/29 09:46:29;;;;;;;25.55;6.20;;;8.90;99.90;;;11.07;100.00;99324.45;1739747;72;25245;-79
2021/01/29 09:48:50;;;;;;;25.95;6.15;;;9.00;99.90;;;11.10;100.00;99337.42;1698898;75;24603;-76
2021/01/29 09:51:24;;;;;;;23.47;5.79;;;9.10;99.90;;;11.06;100.00;99334.89;1707877;73;25009;-78
2021/01/29 09:53:48;;;;;;;22.96;6.13;;;9.20;99.90;;;11.01;100.00;99372.73;1699682;73;24489;-78
2021/01/29 09:56:13;;;;;;;23.52;6.23;;;9.30;99.90;;;11.14;100.00;99348.66;1704332;74;24455;-81
2021/01/29 09:58:52;;;;;;;26.43;5.09;;;9.40;99.90;;;11.01;100.00;99345.39;1707466;75;24490;-78
2021/01/29 10:01:14;;;;;;;26.11;6.40;;;9.40;99.90;;;11.09;100.00;99360.89;1705006;74;24816;-79
2021/01/29 10:03:40;;;;;;;27.54;6.17;;;9.50;99.90;;;11.16;100.00;99350.81;1700409;75;24571;-78
2021/01/29 10:06:06;;;;;;;30.63;6.26;;;9.60;99.90;;;11.27;100.00;99359.32;1704079;75;25125;-78
2021/01/29 10:08:27;;;;;;;28.67;5.78;;;9.60;99.90;;;11.21;100.00;99371.11;1704799;75;24510;-78
2021/01/29 10:11:07;;;;;;;21.39;5.39;;;9.60;99.90;;;11.07;100.00;99378.28;1699680;74;25087;-81
2021/01/29 10:13:57;;;;;;;28.90;5.92;;;9.60;99.90;;;10.91;100.00;99363.79;1711575;75;24872;-80
2021/01/29 10:19:42;;;;;;;26.10;5.97;;;9.50;99.90;;;11.35;100.00;99367.41;1737695;72;25352;-81
2021/01/29 10:26:09;;;;;;;22.81;5.21;;;9.50;99.90;;;11.42;100.00;99387.29;1736533;72;25313;-79
2021/01/29 10:28:53;;;;;;;21.45;6.00;;;9.70;99.90;;;11.47;100.00;99381.56;1708859;74;24367;-81
2021/01/29 10:31:14;;;;;;;28.80;6.52;;;9.70;99.90;;;11.51;100.00;99378.00;1713176;74;24571;-77
2021/01/29 10:33:49;;;;;;;26.69;5.56;;;9.90;99.90;;;11.66;100.00;99372.58;1710915;74;24506;-80
2021/01/29 10:36:17;;;;;;;24.94;6.02;;;10.00;99.90;;;11.73;100.00;99391.56;1703563;74;25410;-80
2021/01/29 10:39:13;;;;;;;20.17;5.40;;;10.20;99.90;;;11.78;100.00;99381.91;1710916;74;24562;-80
2021/01/29 10:42:12;;;;;;;20.31;5.77;;;10.50;99.90;;;12.01;100.00;99378.47;1715816;74;24904;-80
2021/01/29 10:59:03;;;;;;;19.48;5.24;;;10.90;99.90;;;12.38;100.00;99401.64;1736775;72;25353;-80
2021/01/29 11:01:38;;;;;;;21.36;5.22;;;11.40;99.90;;;12.38;100.00;99414.69;1714574;73;24973;-79
2021/01/29 11:04:04;;;;;;;21.50;5.77;;;11.40;99.90;;;12.37;100.00;99418.20;1712190;74;24456;-81
2021/01/29 11:06:26;;;;;;;24.40;5.78;;;11.40;99.90;;;12.33;100.00;99421.75;1706964;74;25027;-77
2021/01/29 11:08:49;;;;;;;22.64;5.34;;;11.40;99.90;;;12.46;100.00;99402.79;1703284;74;24468;-78
2021/01/29 11:11:23;;;;;;;22.06;5.96;;;11.40;99.90;;;12.41;100.00;99407.27;1707838;73;24873;-77
2021/01/29 11:14:39;;;;;;;23.40;5.51;;;11.40;99.90;;;12.22;100.00;99413.27;1697355;75;24406;-84
2021/01/29 11:17:12;;;;;;;23.45;5.60;;;11.30;99.90;;;12.23;100.00;99412.83;1687804;74;24989;-76
2021/01/29 11:19:44;;;;;;;16.52;4.76;;;11.20;99.90;;;12.20;100.00;99416.38;1707006;73;24469;-75
2021/01/29 11:22:21;;;;;;;16.58;5.38;;;11.20;99.90;;;12.24;100.00;99407.58;1694475;74;24517;-82
2021/01/29 11:25:05;;;;;;;19.97;6.26;;;11.20;99.90;;;12.18;100.00;99432.49;1705010;73;25189;-79
2021/01/29 11:27:37;;;;;;;19.39;5.50;;;11.20;99.90;;;12.12;100.00;99433.91;1656530;73;24509;-78
2021/01/29 11:43:45;;;;;;;23.40;5.16;;;11.10;99.90;;;11.17;100.00;99437.19;1725825;72;31502;-78
2021/01/29 11:46:15;;;;;;;26.79;6.47;;;10.10;99.90;;;10.92;100.00;99446.23;1686660;74;24621;-79
2021/01/29 11:48:43;;;;;;;24.18;5.62;;;9.80;99.90;;;10.78;100.00;99454.66;1688827;74;25036;-80
2021/01/29 11:51:04;;;;;;;22.92;5.20;;;9.70;99.90;;;10.90;100.00;99446.25;1688304;74;24485;-78
2021/01/29 11:53:32;;;;;;;22.79;5.73;;;9.50;99.90;;;10.80;100.00;99461.99;1685779;74;24442;-80
2021/01/29 11:55:54;;;;;;;24.67;5.00;;;9.50;99.90;;;10.77;100.00;99457.70;1686892;74;25644;-80
2021/01/29 11:58:21;;;;;;;20.30;5.02;;;9.40;99.90;;;10.70;100.00;99469.92;1685224;74;25202;-77
2021/01/29 12:00:50;;;;;;;19.90;5.47;;;9.30;99.90;;;10.68;100.00;99468.23;1689219;74;24501;-76
2021/01/29 12:03:22;;;;;;;20.63;5.46;;;9.30;99.90;;;10.70;100.00;99460.81;1696529;74;24519;-76
2021/01/29 12:05:48;;;;;;;23.10;5.63;;;9.30;99.90;;;10.73;100.00;99469.89;1685625;74;24446;-77
2021/01/29 12:08:28;;;;;;;22.57;5.46;;;9.30;99.90;;;10.82;100.00;99457.20;1665904;75;25033;-76
2021/01/29 12:10:56;;;;;;;28.68;6.70;;;9.30;99.90;;;10.74;100.00;99451.23;1691245;74;24523;-78
2021/01/29 12:13:20;;;;;;;22.44;5.18;;;9.30;99.90;;;10.93;100.00;99453.15;1700139;74;24869;-78
2021/01/29 12:15:48;;;;;;;29.03;6.05;;;9.40;99.90;;;10.90;100.00;99471.42;1694560;74;25299;-78
2021/01/29 12:18:11;;;;;;;23.40;5.48;;;9.40;99.90;;;10.94;100.00;99453.59;1700146;74;25062;-79
2021/01/29 12:20:33;;;;;;;22.65;5.55;;;9.40;99.90;;;10.99;100.00;99438.73;1695195;74;24453;-77